createdAt,value
2023-04-26T00:00:12.059Z,59.00
2023-04-26T00:05:14.651Z,57.94
2023-04-26T00:10:16.460Z,59.49
2023-04-26T00:15:18.167Z,58.50
2023-04-26T00:20:19.861Z,58.85
2023-04-26T00:25:21.542Z,60.23
2023-04-26T00:30:23.176Z,60.54
2023-04-26T00:35:24.966Z,60.18
2023-04-26T00:40:26.930Z,59.70
2023-04-26T00:45:28.592Z,59.88
2023-04-26T00:50:31.532Z,60.30
2023-04-26T00:55:33.290Z,60.57
2023-04-26T01:00:34.975Z,59.61
2023-04-26T01:05:37.659Z,59.96
2023-04-26T01:10:40.398Z,59.99
2023-04-26T01:15:48.701Z,60.10
2023-04-26T01:20:52.156Z,60.43
2023-04-26T01:25:56.260Z,60.97
2023-04-26T01:30:57.858Z,61.31
2023-04-26T01:35:59.494Z,63.14
2023-04-26T01:41:01.062Z,63.74
2023-04-26T01:46:02.700Z,63.33
2023-04-26T01:51:04.702Z,63.39
2023-04-26T01:56:06.751Z,62.30
2023-04-26T02:01:09.458Z,62.48
2023-04-26T02:06:11.119Z,62.27
2023-04-26T02:11:12.809Z,64.45
2023-04-26T02:16:16.632Z,63.22
2023-04-26T02:21:18.712Z,61.82
2023-04-26T02:26:20.326Z,61.49
2023-04-26T02:31:23.316Z,61.10
2023-04-26T02:36:25.171Z,62.99
2023-04-26T02:41:26.818Z,62.78
2023-04-26T02:46:28.531Z,63.55
2023-04-26T02:51:30.134Z,62.12
2023-04-26T02:56:31.817Z,61.52
2023-04-26T03:01:33.438Z,61.45
2023-04-26T03:06:35.851Z,62.63
2023-04-26T03:11:37.446Z,62.28
2023-04-26T03:16:43.599Z,63.33
2023-04-26T03:21:45.212Z,64.52
2023-04-26T03:26:46.877Z,64.51
2023-04-26T03:31:48.577Z,63.84
2023-04-26T03:36:50.151Z,64.26
2023-04-26T03:41:52.349Z,64.71
2023-04-26T03:46:53.987Z,65.22
2023-04-26T03:51:55.566Z,65.84
2023-04-26T03:56:57.147Z,65.56
2023-04-26T04:01:58.802Z,66.14
2023-04-26T04:07:00.909Z,66.50
2023-04-26T04:12:03.112Z,65.55
2023-04-26T04:17:04.770Z,65.37
2023-04-26T04:22:07.098Z,66.38
2023-04-26T04:27:09.018Z,65.93
2023-04-26T04:32:11.530Z,65.64
2023-04-26T04:37:14.503Z,65.34
2023-04-26T04:42:16.126Z,66.58
2023-04-26T04:47:17.925Z,64.49
2023-04-26T04:52:21.910Z,65.38
2023-04-26T04:57:23.533Z,65.93
2023-04-26T05:02:25.853Z,66.15
2023-04-26T05:07:29.114Z,66.13
2023-04-26T05:12:30.911Z,67.15
2023-04-26T05:17:33.503Z,68.02
2023-04-26T05:22:36.894Z,69.03
2023-04-26T05:27:38.588Z,67.93
2023-04-26T05:32:41.683Z,67.39
2023-04-26T05:37:43.290Z,68.37
2023-04-26T05:42:44.863Z,67.49
2023-04-26T05:47:47.765Z,67.88
2023-04-26T05:52:49.714Z,67.59
2023-04-26T05:57:51.487Z,68.49
2023-04-26T06:02:53.272Z,67.82
2023-04-26T06:08:01.734Z,68.08
2023-04-26T06:13:04.375Z,67.29
2023-04-26T06:18:06.869Z,66.14
2023-04-26T06:23:08.561Z,66.48
2023-04-26T06:28:10.607Z,66.35
2023-04-26T06:33:12.234Z,67.27
2023-04-26T06:38:13.908Z,66.88
2023-04-26T06:43:15.539Z,67.07
2023-04-26T06:48:17.176Z,66.75
2023-04-26T06:53:22.898Z,67.26
2023-04-26T06:58:24.826Z,66.11
2023-04-26T07:03:27.166Z,66.12
2023-04-26T07:08:28.906Z,67.02
2023-04-26T07:13:31.719Z,64.94
2023-04-26T07:18:33.360Z,63.32
2023-04-26T07:23:35.504Z,63.13
2023-04-26T07:28:37.944Z,62.98
2023-04-26T07:33:39.625Z,63.13
2023-04-26T07:38:41.470Z,62.53
2023-04-26T07:43:43.359Z,62.00
2023-04-26T07:48:44.961Z,61.33
2023-04-26T07:53:49.615Z,60.41
2023-04-26T07:58:51.794Z,58.62
2023-04-26T08:03:53.781Z,60.08
2023-04-26T08:08:55.639Z,59.32
2023-04-26T08:13:57.280Z,58.97
2023-04-26T08:19:02.930Z,59.41
2023-04-26T08:24:04.913Z,58.88
2023-04-26T08:29:06.656Z,59.92
2023-04-26T08:34:13.500Z,59.26
2023-04-26T08:39:15.078Z,56.98
2023-04-26T08:44:18.324Z,58.84
2023-04-26T08:49:32.332Z,55.71
2023-04-26T08:54:35.973Z,56.17
2023-04-26T08:59:38.434Z,53.42
2023-04-26T09:04:41.445Z,53.72
2023-04-26T09:09:47.685Z,53.60
2023-04-26T09:14:49.545Z,53.03
2023-04-26T09:19:51.259Z,52.28
2023-04-26T09:24:52.898Z,52.00
2023-04-26T09:30:05.708Z,52.23
2023-04-26T09:35:09.189Z,54.02
2023-04-26T09:40:19.762Z,53.26
2023-04-26T09:45:21.378Z,52.29
2023-04-26T09:50:30.520Z,51.08
2023-04-26T09:55:35.420Z,51.23
2023-04-26T10:00:39.413Z,51.08
2023-04-26T10:05:41.192Z,49.22
2023-04-26T10:10:44.010Z,49.60
2023-04-26T10:15:47.544Z,49.09
2023-04-26T10:20:53.834Z,47.82
2023-04-26T10:25:56.494Z,48.46
2023-04-26T10:30:59.952Z,48.86
2023-04-26T10:36:10.230Z,48.67
2023-04-26T10:41:37.141Z,48.78
2023-04-26T10:46:40.798Z,47.73
2023-04-26T10:52:08.897Z,49.08
2023-04-26T10:57:10.925Z,48.86
2023-04-26T11:02:13.645Z,49.56
2023-04-26T11:07:16.271Z,47.39
2023-04-26T11:12:18.015Z,47.99
2023-04-26T11:17:20.883Z,47.67
2023-04-26T11:22:23.682Z,47.06
2023-04-26T11:27:27.930Z,46.71
2023-04-26T11:32:29.572Z,50.15
2023-04-26T11:37:31.250Z,52.28
2023-04-26T11:42:32.871Z,51.97
2023-04-26T11:47:35.909Z,51.13
2023-04-26T11:52:38.784Z,50.04
2023-04-26T11:57:40.613Z,51.43
2023-04-26T12:02:48.743Z,50.03
2023-04-26T12:07:55.720Z,48.70
2023-04-26T12:12:59.800Z,49.78
2023-04-26T12:18:10.397Z,48.13
2023-04-26T12:23:15.430Z,47.00
2023-04-26T12:28:17.151Z,46.36
2023-04-26T12:33:22.910Z,47.62
2023-04-26T12:38:24.827Z,46.20
2023-04-26T12:43:26.739Z,47.21
2023-04-26T12:48:29.877Z,45.23
2023-04-26T12:53:34.876Z,45.46
2023-04-26T12:58:36.795Z,45.52
2023-04-26T13:03:42.227Z,47.13
2023-04-26T13:08:43.958Z,47.42
2023-04-26T13:13:45.684Z,47.40
2023-04-26T13:18:47.345Z,46.53
2023-04-26T13:23:49.015Z,47.65
2023-04-26T13:28:51.502Z,47.73
2023-04-26T13:33:53.204Z,46.94
2023-04-26T13:38:54.901Z,48.23
2023-04-26T13:43:57.135Z,47.36
2023-04-26T13:48:58.839Z,48.32
2023-04-26T13:54:00.701Z,49.56
2023-04-26T13:59:03.668Z,49.30
2023-04-26T14:04:05.778Z,47.60
2023-04-26T14:09:08.890Z,46.11
2023-04-26T14:14:11.331Z,48.23
2023-04-26T14:19:15.427Z,48.52
2023-04-26T14:24:17.062Z,48.19
2023-04-26T14:29:18.693Z,47.49
2023-04-26T14:34:22.128Z,46.17
2023-04-26T14:39:24.816Z,47.83
2023-04-26T14:44:27.275Z,46.83
2023-04-26T14:49:28.954Z,48.10
2023-04-26T14:54:30.566Z,48.28
2023-04-26T14:59:32.221Z,48.10
2023-04-26T15:04:34.005Z,48.00
2023-04-26T15:09:36.254Z,45.84
2023-04-26T15:14:37.836Z,46.71
2023-04-26T15:19:39.418Z,46.85
2023-04-26T15:24:41.272Z,46.55
2023-04-26T15:29:42.953Z,42.99
2023-04-26T15:34:45.200Z,44.37
2023-04-26T15:39:47.498Z,46.50
2023-04-26T15:44:50.055Z,45.45
2023-04-26T15:49:51.796Z,45.31
2023-04-26T15:54:53.412Z,45.44
2023-04-26T15:59:55.058Z,44.33
2023-04-26T16:04:56.851Z,44.55
2023-04-26T16:09:58.721Z,43.84
2023-04-26T16:15:00.392Z,45.51
2023-04-26T16:20:02.638Z,45.99
2023-04-26T16:25:06.896Z,46.56
2023-04-26T16:30:09.827Z,45.36
2023-04-26T16:35:11.614Z,44.38
2023-04-26T16:40:13.676Z,44.13
2023-04-26T16:45:16.498Z,44.37
2023-04-26T16:50:18.312Z,44.38
2023-04-26T16:55:19.914Z,45.10
2023-04-26T17:00:21.578Z,45.87
2023-04-26T17:05:23.152Z,46.07
2023-04-26T17:10:26.826Z,45.64
2023-04-26T17:15:28.993Z,46.64
2023-04-26T17:20:32.369Z,47.59
2023-04-26T17:25:35.318Z,47.86
2023-04-26T17:30:37.855Z,48.26
2023-04-26T17:35:43.037Z,49.07
2023-04-26T17:40:44.734Z,49.27
2023-04-26T17:45:46.593Z,49.96
2023-04-26T17:50:48.257Z,51.30
2023-04-26T17:55:51.945Z,50.94
2023-04-26T18:00:53.979Z,51.57
2023-04-26T18:05:55.799Z,52.57
2023-04-26T18:10:59.766Z,52.74
2023-04-26T18:16:03.410Z,52.87
2023-04-26T18:21:06.245Z,53.37
2023-04-26T18:26:08.644Z,53.96
2023-04-26T18:31:12.186Z,54.59
2023-04-26T18:36:14.992Z,55.24
2023-04-26T18:41:17.964Z,56.90
2023-04-26T18:46:21.033Z,56.73
2023-04-26T18:51:23.602Z,57.96
2023-04-26T18:56:27.607Z,58.88
2023-04-26T19:01:30.714Z,58.83
2023-04-26T19:06:33.623Z,57.60
2023-04-26T19:11:35.747Z,57.57
2023-04-26T19:16:39.924Z,56.90
2023-04-26T19:21:43.013Z,58.28
2023-04-26T19:26:45.980Z,57.64
2023-04-26T19:31:48.103Z,58.80
2023-04-26T19:36:50.269Z,58.98
2023-04-26T19:41:52.433Z,59.63
2023-04-26T19:46:54.717Z,58.46
2023-04-26T19:51:58.763Z,58.09
2023-04-26T19:57:03.690Z,58.73
2023-04-26T20:02:07.221Z,58.05
2023-04-26T20:07:09.348Z,60.44
2023-04-26T20:12:12.203Z,60.13
2023-04-26T20:17:14.578Z,58.03
2023-04-26T20:22:16.972Z,57.89
2023-04-26T20:27:19.278Z,57.56
2023-04-26T20:32:21.435Z,57.25
2023-04-26T20:37:23.471Z,57.53
2023-04-26T20:42:25.394Z,58.63
2023-04-26T20:47:27.034Z,59.14
2023-04-26T20:52:28.781Z,59.38
2023-04-26T20:57:30.811Z,58.27
2023-04-26T21:02:32.768Z,58.62
2023-04-26T21:07:34.413Z,58.47
2023-04-26T21:12:36.264Z,59.65
2023-04-26T21:17:37.952Z,60.73
2023-04-26T21:22:39.589Z,59.70
2023-04-26T21:27:41.353Z,60.16
2023-04-26T21:32:43.061Z,60.62
2023-04-26T21:37:44.711Z,61.38
2023-04-26T21:42:57.757Z,61.11
2023-04-26T21:48:05.931Z,61.64
2023-04-26T21:53:07.658Z,61.39
2023-04-26T21:58:09.288Z,60.84
2023-04-26T22:03:11.170Z,61.47
2023-04-26T22:08:12.822Z,61.36
2023-04-26T22:13:14.463Z,62.67
2023-04-26T22:18:16.555Z,62.24
2023-04-26T22:23:18.150Z,62.46
2023-04-26T22:28:19.828Z,62.19
2023-04-26T22:33:21.596Z,61.79
2023-04-26T22:38:24.581Z,61.85
2023-04-26T22:43:26.177Z,61.34
2023-04-26T22:48:27.936Z,61.95
2023-04-26T22:53:29.994Z,60.35
2023-04-26T22:58:32.084Z,61.54
2023-04-26T23:03:36.876Z,61.01
2023-04-26T23:08:38.575Z,61.69
2023-04-26T23:13:40.139Z,61.87
2023-04-26T23:18:44.615Z,62.16
2023-04-26T23:23:46.186Z,62.58
2023-04-26T23:28:47.867Z,62.83
2023-04-26T23:33:49.460Z,62.57
2023-04-26T23:38:51.136Z,61.86
2023-04-26T23:43:52.716Z,61.32
2023-04-26T23:48:54.340Z,61.71
2023-04-26T23:53:55.965Z,62.05
2023-04-26T23:58:58.415Z,61.85
